createdAt,value
2017-07-23T00:00:37.807Z,29.7
2017-07-23T00:01:39.937Z,29.8
2017-07-23T00:02:41.403Z,29.8
2017-07-23T00:03:43.225Z,29.8
2017-07-23T00:04:44.692Z,29.8
2017-07-23T00:05:46.493Z,29.7
2017-07-23T00:06:48.640Z,29.7
2017-07-23T00:07:50.770Z,29.8
2017-07-23T00:08:52.569Z,29.7
2017-07-23T00:09:54.013Z,29.7
2017-07-23T00:10:55.810Z,29.7
2017-07-23T00:11:57.586Z,29.8
2017-07-23T00:12:59.387Z,29.8
2017-07-23T00:14:01.520Z,29.7
2017-07-23T00:15:03.650Z,29.7
2017-07-23T00:16:05.785Z,29.7
2017-07-23T00:17:07.588Z,29.8
2017-07-23T00:18:09.723Z,29.7
2017-07-23T00:20:23.030Z,29.7
2017-07-23T00:21:24.797Z,29.7
2017-07-23T00:22:26.599Z,29.7
2017-07-23T00:23:28.065Z,29.7
2017-07-23T00:24:30.209Z,29.7
2017-07-23T00:27:32.841Z,29.7
2017-07-23T00:28:34.973Z,29.7
2017-07-23T00:29:36.778Z,29.7
2017-07-23T00:31:04.247Z,29.8
2017-07-23T00:32:06.048Z,29.7
2017-07-23T00:33:08.131Z,29.7
2017-07-23T00:34:09.931Z,29.7
2017-07-23T00:35:11.729Z,29.7
2017-07-23T00:36:13.195Z,29.8
2017-07-23T00:37:15.327Z,29.8
2017-07-23T00:38:17.122Z,29.7
2017-07-23T00:39:19.255Z,29.7
2017-07-23T00:40:20.726Z,29.8
2017-07-23T00:41:22.862Z,29.7
2017-07-23T00:42:24.987Z,29.8
2017-07-23T00:43:26.784Z,29.8
2017-07-23T00:44:27.892Z,29.8
2017-07-23T00:45:29.336Z,29.7
2017-07-23T00:46:30.785Z,29.8
2017-07-23T00:47:32.585Z,29.7
2017-07-23T00:48:34.386Z,29.7
2017-07-23T00:49:36.165Z,29.8
2017-07-23T00:50:38.294Z,29.7
2017-07-23T00:51:40.428Z,29.8
2017-07-23T00:52:41.896Z,29.8
2017-07-23T00:53:44.026Z,29.7
2017-07-23T00:54:45.831Z,29.7
2017-07-23T00:55:47.965Z,29.7
2017-07-23T00:56:50.098Z,29.7
2017-07-23T00:57:52.229Z,29.7
2017-07-23T00:58:54.008Z,29.7
2017-07-23T00:59:56.142Z,29.7
2017-07-23T01:00:57.943Z,29.7
2017-07-23T01:02:00.073Z,29.8
2017-07-23T01:03:01.877Z,29.7
2017-07-23T01:04:02.987Z,29.7
2017-07-23T01:05:05.119Z,29.7
2017-07-23T01:06:06.255Z,29.8
2017-07-23T01:07:08.390Z,29.7
2017-07-23T01:08:09.832Z,29.7
2017-07-23T01:09:11.965Z,29.8
2017-07-23T01:10:13.762Z,29.7
2017-07-23T01:11:15.899Z,29.7
2017-07-23T01:12:17.692Z,29.7
2017-07-23T01:13:19.495Z,29.8
2017-07-23T01:14:21.625Z,29.8
2017-07-23T01:15:23.757Z,29.7
2017-07-23T01:16:25.889Z,29.7
2017-07-23T01:17:27.752Z,29.7
2017-07-23T01:18:29.214Z,29.7
2017-07-23T01:19:31.017Z,29.7
2017-07-23T01:20:33.150Z,29.7
2017-07-23T01:21:34.930Z,29.7
2017-07-23T01:22:37.061Z,29.6
2017-07-23T01:23:39.194Z,29.8
2017-07-23T01:24:40.662Z,29.7
2017-07-23T01:25:42.445Z,29.7
2017-07-23T01:26:43.557Z,29.7
2017-07-23T01:27:45.357Z,29.7
2017-07-23T01:28:47.488Z,29.7
2017-07-23T01:29:49.292Z,29.7
2017-07-23T01:30:50.736Z,29.7
2017-07-23T01:31:52.866Z,29.6
2017-07-23T01:32:54.997Z,29.7
2017-07-23T01:33:56.464Z,29.7
2017-07-23T01:34:58.240Z,29.8
2017-07-23T01:36:00.372Z,29.7
2017-07-23T01:37:02.148Z,29.7
2017-07-23T01:38:04.279Z,29.6
2017-07-23T01:39:06.078Z,29.7
2017-07-23T01:40:07.530Z,29.7
2017-07-23T01:41:09.705Z,29.6
2017-07-23T01:42:11.504Z,29.7
2017-07-23T01:43:13.304Z,29.7
2017-07-23T01:44:15.437Z,29.7
2017-07-23T01:45:16.880Z,29.7
2017-07-23T01:46:19.015Z,29.7
2017-07-23T01:47:21.142Z,29.7
2017-07-23T01:48:23.281Z,29.6
2017-07-23T01:49:25.405Z,29.7
2017-07-23T01:50:27.221Z,29.6
2017-07-23T01:51:29.362Z,29.5
2017-07-23T01:52:31.161Z,29.6
2017-07-23T01:53:32.961Z,29.6
2017-07-23T01:54:34.432Z,29.6
2017-07-23T01:55:36.232Z,29.6
2017-07-23T01:56:38.010Z,29.5
2017-07-23T01:57:40.141Z,29.6
2017-07-23T01:58:42.273Z,29.6
2017-07-23T01:59:44.404Z,29.6
2017-07-23T02:00:46.537Z,29.6
2017-07-23T02:01:48.335Z,29.6
2017-07-23T02:02:50.467Z,29.6
2017-07-23T02:03:52.244Z,29.6
2017-07-23T02:04:53.713Z,29.6
2017-07-23T02:05:55.159Z,29.6
2017-07-23T02:06:57.290Z,29.6
2017-07-23T02:07:58.754Z,29.6
2017-07-23T02:09:00.224Z,29.6
2017-07-23T02:10:02.022Z,29.6
2017-07-23T02:11:03.801Z,29.5
2017-07-23T02:12:05.646Z,29.6
2017-07-23T02:13:07.425Z,29.6
2017-07-23T02:14:09.224Z,29.6
2017-07-23T02:15:11.025Z,29.5
2017-07-23T02:16:13.156Z,29.6
2017-07-23T02:17:14.960Z,29.6
2017-07-23T02:18:16.428Z,29.6
2017-07-23T02:19:18.228Z,29.6
2017-07-23T02:20:20.029Z,29.6
2017-07-23T02:21:22.168Z,29.6
2017-07-23T02:22:24.297Z,29.6
2017-07-23T02:23:26.430Z,29.5
2017-07-23T02:24:28.563Z,29.6
2017-07-23T02:25:30.695Z,29.6
2017-07-23T02:26:32.493Z,29.6
2017-07-23T02:27:34.645Z,29.6
2017-07-23T02:28:36.097Z,29.6
2017-07-23T02:29:38.228Z,29.6
2017-07-23T02:30:40.356Z,29.6
2017-07-23T02:31:42.491Z,29.6
2017-07-23T02:32:43.939Z,29.5
2017-07-23T02:33:46.083Z,29.6
2017-07-23T02:34:48.254Z,29.6
2017-07-23T02:35:50.385Z,29.5
2017-07-23T02:36:52.516Z,29.6
2017-07-23T02:37:54.653Z,29.6
2017-07-23T02:38:56.461Z,29.6
2017-07-23T02:39:58.591Z,29.6
2017-07-23T02:41:00.723Z,29.5
2017-07-23T02:42:02.855Z,29.6
2017-07-23T02:43:04.633Z,29.6
2017-07-23T02:44:06.766Z,29.5
2017-07-23T02:45:08.552Z,29.5
2017-07-23T02:46:10.352Z,29.5
2017-07-23T02:47:12.150Z,29.6
2017-07-23T02:48:14.280Z,29.6
2017-07-23T02:49:16.082Z,29.6
2017-07-23T02:50:17.881Z,29.5
2017-07-23T02:51:19.349Z,29.6
2017-07-23T02:52:21.480Z,29.6
2017-07-23T02:53:23.278Z,29.6
2017-07-23T02:54:25.063Z,29.6
2017-07-23T02:55:26.506Z,29.6
2017-07-23T02:56:28.643Z,29.6
2017-07-23T02:57:30.780Z,29.6
2017-07-23T02:58:32.967Z,29.6
2017-07-23T02:59:35.099Z,29.6
2017-07-23T03:00:36.556Z,29.6
2017-07-23T03:01:38.330Z,29.5
2017-07-23T03:02:40.469Z,29.6
2017-07-23T03:03:42.266Z,29.6
2017-07-23T03:04:44.397Z,29.6
2017-07-23T03:05:46.532Z,29.5
2017-07-23T03:06:48.664Z,29.6
2017-07-23T03:07:50.466Z,29.6
2017-07-23T03:08:52.249Z,29.5
2017-07-23T03:09:53.691Z,29.6
2017-07-23T03:10:55.479Z,29.6
2017-07-23T03:11:57.610Z,29.5
2017-07-23T03:12:59.080Z,29.5
2017-07-23T03:14:01.213Z,29.4
2017-07-23T03:15:03.346Z,29.5
2017-07-23T03:16:05.481Z,29.5
2017-07-23T03:17:07.614Z,29.5
2017-07-23T03:18:09.744Z,29.5
2017-07-23T03:19:11.545Z,29.5
2017-07-23T03:20:13.351Z,29.5
2017-07-23T03:21:15.151Z,29.5
2017-07-23T03:22:17.282Z,29.6
2017-07-23T03:23:19.422Z,29.5
2017-07-23T03:24:20.865Z,29.5
2017-07-23T03:25:22.309Z,29.5
2017-07-23T03:26:24.446Z,29.6
2017-07-23T03:27:26.577Z,29.5
2017-07-23T03:28:28.709Z,29.4
2017-07-23T03:29:30.842Z,29.5
2017-07-23T03:30:31.626Z,29.5
2017-07-23T03:31:33.766Z,29.5
2017-07-23T03:32:35.895Z,29.5
2017-07-23T03:33:38.029Z,29.5
2017-07-23T03:34:40.164Z,29.5
2017-07-23T03:35:41.970Z,29.5
2017-07-23T03:36:44.104Z,29.5
2017-07-23T03:37:45.905Z,29.5
2017-07-23T03:38:48.034Z,29.5
2017-07-23T03:39:49.826Z,29.5
2017-07-23T03:40:51.958Z,29.5
2017-07-23T03:41:53.420Z,29.5
2017-07-23T03:42:55.217Z,29.5
2017-07-23T03:43:57.346Z,29.5
2017-07-23T03:44:58.790Z,29.5
2017-07-23T03:46:00.925Z,29.5
2017-07-23T03:47:02.369Z,29.5
2017-07-23T03:48:04.503Z,29.5
2017-07-23T03:49:06.636Z,29.5
2017-07-23T03:50:08.089Z,29.5
2017-07-23T03:51:09.554Z,29.5
2017-07-23T03:52:11.354Z,29.5
2017-07-23T03:53:13.155Z,29.5
2017-07-23T03:54:14.934Z,29.5
2017-07-23T03:55:17.071Z,29.5
2017-07-23T03:56:18.870Z,29.5
2017-07-23T03:57:20.672Z,29.5
2017-07-23T03:58:22.144Z,29.5
2017-07-23T03:59:23.947Z,29.4
2017-07-23T04:00:26.083Z,29.5
2017-07-23T04:01:27.886Z,29.5
2017-07-23T04:02:29.671Z,29.5
2017-07-23T04:03:31.806Z,29.5
2017-07-23T04:04:33.604Z,29.5
2017-07-23T04:05:35.049Z,29.5
2017-07-23T04:06:36.495Z,29.5
2017-07-23T04:07:38.296Z,29.5
2017-07-23T04:08:40.090Z,29.5
2017-07-23T04:09:42.322Z,29.5
2017-07-23T04:10:44.455Z,29.5
2017-07-23T04:11:46.587Z,29.5
2017-07-23T04:12:48.049Z,29.5
2017-07-23T04:13:49.849Z,29.5
2017-07-23T04:14:51.653Z,29.5
2017-07-23T04:15:53.450Z,29.5
2017-07-23T04:16:55.255Z,29.5
2017-07-23T04:17:57.385Z,29.6
2017-07-23T04:18:59.185Z,29.5
2017-07-23T04:20:01.317Z,29.5
2017-07-23T04:21:03.093Z,29.6
2017-07-23T04:22:04.894Z,29.5
2017-07-23T04:23:06.696Z,29.7
2017-07-23T04:24:08.472Z,29.5
2017-07-23T04:25:10.274Z,29.6
2017-07-23T04:26:12.071Z,29.6
2017-07-23T04:27:13.850Z,29.6
2017-07-23T04:28:15.628Z,29.6
2017-07-23T04:29:17.426Z,29.6
2017-07-23T04:30:19.559Z,29.6
2017-07-23T04:31:21.691Z,29.6
2017-07-23T04:32:23.822Z,29.6
2017-07-23T04:33:25.623Z,29.6
2017-07-23T04:34:27.398Z,29.5
2017-07-23T04:35:29.201Z,29.5
2017-07-23T04:36:31.003Z,29.6
2017-07-23T04:37:33.137Z,29.6
2017-07-23T04:38:34.940Z,29.6
2017-07-23T04:39:37.075Z,29.6
2017-07-23T04:40:39.260Z,29.5
2017-07-23T04:41:40.709Z,29.6
2017-07-23T04:42:42.176Z,29.6
2017-07-23T04:43:44.332Z,29.8
2017-07-23T04:44:46.450Z,29.9
2017-07-23T04:45:48.586Z,30
2017-07-23T04:46:50.717Z,30
2017-07-23T04:47:52.858Z,30
2017-07-23T04:48:54.656Z,30.1
2017-07-23T04:49:56.792Z,30.2
2017-07-23T04:50:58.926Z,30.1
2017-07-23T04:52:00.728Z,30.2
2017-07-23T04:53:02.865Z,30.1
2017-07-23T04:54:04.665Z,29.9
2017-07-23T04:55:06.465Z,30
2017-07-23T04:56:08.600Z,29.9
2017-07-23T04:57:10.731Z,29.9
2017-07-23T04:58:12.508Z,29.9
2017-07-23T04:59:14.649Z,29.9
2017-07-23T05:00:16.445Z,29.8
2017-07-23T05:01:18.243Z,29.8
2017-07-23T05:02:20.048Z,29.7
2017-07-23T05:03:21.826Z,29.8
2017-07-23T05:04:23.609Z,29.7
2017-07-23T05:05:25.405Z,29.8
2017-07-23T05:06:27.209Z,29.8
2017-07-23T05:07:28.988Z,29.7
2017-07-23T05:08:30.439Z,29.8
2017-07-23T05:09:31.897Z,29.7
2017-07-23T05:10:34.031Z,29.7
2017-07-23T05:11:35.859Z,29.7
2017-07-23T05:12:37.664Z,29.7
2017-07-23T05:13:39.798Z,29.7
2017-07-23T05:14:41.609Z,29.7
2017-07-23T05:15:43.412Z,29.8
2017-07-23T05:16:45.213Z,29.7
2017-07-23T05:17:47.342Z,29.8
2017-07-23T05:18:49.479Z,29.7
2017-07-23T05:19:50.942Z,29.7
2017-07-23T05:20:52.741Z,29.8
2017-07-23T05:21:54.184Z,29.7
2017-07-23T05:22:56.319Z,29.8
2017-07-23T05:23:58.101Z,29.7
2017-07-23T05:24:59.906Z,29.8
2017-07-23T05:26:01.375Z,29.8
2017-07-23T05:27:02.839Z,29.7
2017-07-23T05:28:04.310Z,29.8
2017-07-23T05:29:06.114Z,29.8
2017-07-23T05:30:08.250Z,29.7
2017-07-23T05:31:10.052Z,29.8
2017-07-23T05:32:12.197Z,29.9
2017-07-23T05:33:13.649Z,29.9
2017-07-23T05:34:15.785Z,29.9
2017-07-23T05:35:17.236Z,30
2017-07-23T05:36:19.015Z,30
2017-07-23T05:37:20.814Z,29.9
2017-07-23T05:38:22.260Z,30
2017-07-23T05:39:23.735Z,29.9
2017-07-23T05:40:25.865Z,29.9
2017-07-23T05:41:27.998Z,29.9
2017-07-23T05:42:29.774Z,29.9
2017-07-23T05:43:31.578Z,29.9
2017-07-23T05:44:33.709Z,29.9
2017-07-23T05:45:35.511Z,29.9
2017-07-23T05:46:37.314Z,29.8
2017-07-23T05:47:38.763Z,29.9
2017-07-23T05:48:40.545Z,29.8
2017-07-23T05:49:42.678Z,29.8
2017-07-23T05:50:44.450Z,29.8
2017-07-23T05:51:46.586Z,29.9
2017-07-23T05:52:48.387Z,29.9
2017-07-23T05:53:50.190Z,29.8
2017-07-23T05:54:51.632Z,29.8
2017-07-23T05:55:53.774Z,29.9
2017-07-23T05:56:55.214Z,29.8
2017-07-23T05:57:57.031Z,29.8
2017-07-23T05:58:58.817Z,29.8
2017-07-23T06:00:00.946Z,29.8
2017-07-23T06:01:02.727Z,29.8
2017-07-23T06:02:04.528Z,29.9
2017-07-23T06:03:05.974Z,29.8
2017-07-23T06:04:07.775Z,29.8
2017-07-23T06:05:09.242Z,29.8
2017-07-23T06:06:11.043Z,29.8
2017-07-23T06:07:13.176Z,29.8
2017-07-23T06:08:15.032Z,29.9
2017-07-23T06:09:17.165Z,29.9
2017-07-23T06:10:18.966Z,29.9
2017-07-23T06:11:20.079Z,29.8
2017-07-23T06:12:21.199Z,29.9
2017-07-23T06:13:23.337Z,29.9
2017-07-23T06:14:25.470Z,29.8
2017-07-23T06:15:27.606Z,29.9
2017-07-23T06:16:29.740Z,29.9
2017-07-23T06:17:31.549Z,29.8
2017-07-23T06:18:33.680Z,29.9
2017-07-23T06:19:35.483Z,29.8
2017-07-23T06:20:37.615Z,29.8
2017-07-23T06:21:39.060Z,29.9
2017-07-23T06:22:40.861Z,29.9
2017-07-23T06:23:42.341Z,29.8
2017-07-23T06:24:44.146Z,29.9
2017-07-23T06:25:45.606Z,29.9
2017-07-23T06:26:47.743Z,29.8
2017-07-23T06:27:49.524Z,29.9
2017-07-23T06:28:51.372Z,29.9
2017-07-23T06:29:53.154Z,29.8
2017-07-23T06:30:55.289Z,29.9
2017-07-23T06:31:56.757Z,30
2017-07-23T06:32:58.200Z,29.9
2017-07-23T06:34:00.335Z,29.9
2017-07-23T06:35:02.474Z,30
2017-07-23T06:36:03.943Z,29.9
2017-07-23T06:37:05.747Z,30
2017-07-23T06:38:07.644Z,29.9
2017-07-23T06:39:09.777Z,29.9
2017-07-23T06:40:11.575Z,29.9
2017-07-23T06:41:13.713Z,30
2017-07-23T06:42:15.514Z,29.9
2017-07-23T06:43:17.345Z,29.9
2017-07-23T06:44:19.483Z,29.9
2017-07-23T06:45:21.288Z,30
2017-07-23T06:46:22.420Z,29.9
2017-07-23T06:47:24.196Z,30
2017-07-23T06:48:25.313Z,30
2017-07-23T06:49:27.116Z,30
2017-07-23T06:50:28.915Z,29.9
2017-07-23T06:51:30.389Z,29.9
2017-07-23T06:52:32.524Z,30
2017-07-23T06:53:34.658Z,30
2017-07-23T06:54:36.133Z,30
2017-07-23T06:55:37.912Z,29.9
2017-07-23T06:56:40.045Z,29.9
2017-07-23T06:57:41.518Z,29.9
2017-07-23T06:58:42.986Z,30
2017-07-23T06:59:44.791Z,29.9
2017-07-23T07:00:46.590Z,30
2017-07-23T07:01:48.044Z,30
2017-07-23T07:02:49.512Z,30
2017-07-23T07:03:51.318Z,29.9
2017-07-23T07:04:53.447Z,30
2017-07-23T07:05:55.583Z,29.9
2017-07-23T07:06:57.716Z,30
2017-07-23T07:07:59.521Z,30
2017-07-23T07:09:00.987Z,30
2017-07-23T07:10:03.121Z,30
2017-07-23T07:11:05.258Z,30
2017-07-23T07:12:06.400Z,30
2017-07-23T07:13:08.197Z,30
2017-07-23T07:14:10.001Z,30.1
2017-07-23T07:15:11.777Z,30
2017-07-23T07:16:12.901Z,30
2017-07-23T07:17:14.701Z,30
2017-07-23T07:18:16.507Z,30
2017-07-23T07:19:18.304Z,30
2017-07-23T07:20:20.113Z,30
2017-07-23T07:21:22.245Z,30.1
2017-07-23T07:22:24.043Z,30
2017-07-23T07:23:25.844Z,30
2017-07-23T07:24:27.311Z,30
2017-07-23T07:25:29.135Z,30
2017-07-23T07:26:30.931Z,29.9
2017-07-23T07:27:32.404Z,30
2017-07-23T07:28:34.199Z,29.9
2017-07-23T07:29:36.003Z,29.9
2017-07-23T07:30:37.802Z,30
2017-07-23T07:31:39.591Z,30
2017-07-23T07:32:41.390Z,30
2017-07-23T07:33:43.171Z,30.1
2017-07-23T07:34:44.965Z,30
2017-07-23T07:35:46.775Z,30
2017-07-23T07:36:48.578Z,30
2017-07-23T07:37:49.692Z,30
2017-07-23T07:38:51.141Z,30
2017-07-23T07:39:52.941Z,30
2017-07-23T07:40:55.080Z,30
2017-07-23T07:41:56.878Z,30.1
2017-07-23T07:42:58.682Z,30.1
2017-07-23T07:44:00.815Z,30
2017-07-23T07:45:02.953Z,30
2017-07-23T07:46:04.418Z,30.1
2017-07-23T07:47:06.550Z,30.1
2017-07-23T07:48:08.002Z,30
2017-07-23T07:49:09.804Z,30.1
2017-07-23T07:50:11.603Z,30.1
2017-07-23T07:51:13.050Z,30.1
2017-07-23T07:52:14.499Z,30.1
2017-07-23T07:53:15.624Z,30
2017-07-23T07:54:17.762Z,30
2017-07-23T07:55:19.564Z,30.1
2017-07-23T07:56:21.344Z,30.1
2017-07-23T07:57:23.146Z,30.1
2017-07-23T07:58:25.283Z,30.1
2017-07-23T07:59:27.420Z,30.1
2017-07-23T08:00:29.555Z,30.1
2017-07-23T08:01:31.361Z,30
2017-07-23T08:02:33.158Z,30.1
2017-07-23T08:03:34.283Z,30.1
2017-07-23T08:04:35.393Z,30.1
2017-07-23T08:05:37.198Z,30.2
2017-07-23T08:06:38.664Z,30.2
2017-07-23T08:07:39.787Z,30.1
2017-07-23T08:08:41.589Z,30.2
2017-07-23T08:09:43.390Z,30.2
2017-07-23T08:10:45.522Z,30.1
2017-07-23T08:11:46.998Z,30.2
2017-07-23T08:12:48.798Z,30.1
2017-07-23T08:13:50.932Z,30.1
2017-07-23T08:14:52.711Z,30.2
2017-07-23T08:15:54.845Z,30.2
2017-07-23T08:16:56.650Z,30.1
2017-07-23T08:17:58.785Z,30.2
2017-07-23T08:19:00.254Z,30.2
2017-07-23T08:20:02.053Z,30.3
2017-07-23T08:21:03.165Z,30.2
2017-07-23T08:22:05.300Z,30.3
2017-07-23T08:23:07.104Z,30.3
2017-07-23T08:24:08.575Z,30.3
2017-07-23T08:25:10.707Z,30.3
2017-07-23T08:26:12.845Z,30.3
2017-07-23T08:27:14.645Z,30.3
2017-07-23T08:28:16.116Z,30.3
2017-07-23T08:29:17.587Z,30.2
2017-07-23T08:30:19.400Z,30.2
2017-07-23T08:31:20.869Z,30.2
2017-07-23T08:32:22.669Z,30.2
2017-07-23T08:33:24.471Z,30.4
2017-07-23T08:34:26.272Z,30.3
2017-07-23T08:35:28.406Z,30.3
2017-07-23T08:36:30.188Z,30.3
2017-07-23T08:37:32.322Z,30.2
2017-07-23T08:38:34.106Z,30.2
2017-07-23T08:39:35.551Z,30.3
2017-07-23T08:40:37.690Z,30.3
2017-07-23T08:41:39.134Z,30.2
2017-07-23T08:42:41.267Z,30.2
2017-07-23T08:43:42.402Z,30.2
2017-07-23T08:44:44.537Z,30.2
2017-07-23T08:45:45.987Z,30.2
2017-07-23T08:46:47.764Z,30.2
2017-07-23T08:47:49.901Z,30.2
2017-07-23T08:48:51.718Z,30.2
2017-07-23T08:49:53.518Z,30.2
2017-07-23T08:50:55.323Z,30.2
2017-07-23T08:51:56.816Z,30.2
2017-07-23T08:52:58.613Z,30.2
2017-07-23T08:54:00.414Z,30.2
2017-07-23T08:55:02.210Z,30.2
2017-07-23T08:56:03.327Z,30.3
2017-07-23T08:57:04.805Z,30.3
2017-07-23T08:58:06.934Z,30.3
2017-07-23T08:59:08.053Z,30.3
2017-07-23T09:00:10.188Z,30.3
2017-07-23T09:01:11.633Z,30.2
2017-07-23T09:02:13.433Z,30.2
2017-07-23T09:03:15.235Z,30.3
2017-07-23T09:04:17.033Z,30.4
2017-07-23T09:05:18.835Z,30.3
2017-07-23T09:06:20.636Z,30.3
2017-07-23T09:07:22.773Z,30.3
2017-07-23T09:08:24.907Z,30.3
2017-07-23T09:09:26.388Z,30.3
2017-07-23T09:10:28.521Z,30.2
2017-07-23T09:11:29.971Z,30.3
2017-07-23T09:12:31.750Z,30.2
2017-07-23T09:13:33.553Z,30.3
2017-07-23T09:14:35.686Z,30.2
2017-07-23T09:15:37.491Z,30.3
2017-07-23T09:16:39.625Z,30.2
2017-07-23T09:17:41.424Z,30.2
2017-07-23T09:18:43.560Z,30.2
2017-07-23T09:19:45.366Z,30.2
2017-07-23T09:20:47.501Z,30.3
2017-07-23T09:21:49.637Z,30.2
2017-07-23T09:22:51.437Z,30.3
2017-07-23T09:23:53.239Z,30.3
2017-07-23T09:24:55.015Z,30.3
2017-07-23T09:25:56.469Z,30.3
2017-07-23T09:26:58.602Z,30.3
2017-07-23T09:28:00.739Z,30.3
2017-07-23T09:29:02.542Z,30.3
2017-07-23T09:30:04.358Z,30.4
2017-07-23T09:31:06.493Z,30.3
2017-07-23T09:32:08.297Z,30.3
2017-07-23T09:33:09.508Z,30.3
2017-07-23T09:34:10.956Z,30.4
2017-07-23T09:35:12.414Z,30.3
2017-07-23T09:36:14.210Z,30.4
2017-07-23T09:37:16.014Z,30.4
2017-07-23T09:38:17.483Z,30.4
2017-07-23T09:39:19.262Z,30.3
2017-07-23T09:40:20.736Z,30.3
2017-07-23T09:41:22.873Z,30.4
2017-07-23T09:42:25.009Z,30.3
2017-07-23T09:43:26.793Z,30.3
2017-07-23T09:44:28.599Z,30.4
2017-07-23T09:45:30.399Z,30.3
2017-07-23T09:46:32.536Z,30.3
2017-07-23T09:47:34.338Z,30.3
2017-07-23T09:48:35.788Z,30.3
2017-07-23T09:49:37.920Z,30.4
2017-07-23T09:50:40.053Z,30.3
2017-07-23T09:51:41.190Z,30.4
2017-07-23T09:52:42.989Z,30.3
2017-07-23T09:53:44.795Z,30.4
2017-07-23T09:54:46.601Z,30.3
2017-07-23T09:55:48.070Z,30.4
2017-07-23T09:56:50.206Z,30.4
2017-07-23T09:57:52.011Z,30.4
2017-07-23T09:58:54.142Z,30.4
2017-07-23T09:59:55.608Z,30.4
2017-07-23T10:00:57.061Z,30.4
2017-07-23T10:01:58.534Z,30.3
2017-07-23T10:02:59.982Z,30.4
2017-07-23T10:04:01.452Z,30.4
2017-07-23T10:05:03.583Z,30.4
2017-07-23T10:06:05.712Z,30.4
2017-07-23T10:07:07.509Z,30.5
2017-07-23T10:08:09.307Z,30.5
2017-07-23T10:09:11.108Z,30.5
2017-07-23T10:10:12.248Z,30.5
2017-07-23T10:11:14.383Z,30.5
2017-07-23T10:12:16.184Z,30.4
2017-07-23T10:13:17.988Z,30.4
2017-07-23T10:14:20.121Z,30.5
2017-07-23T10:15:21.571Z,30.5
2017-07-23T10:16:23.374Z,30.5
2017-07-23T10:17:25.153Z,30.4
2017-07-23T10:18:26.956Z,30.5
2017-07-23T10:19:28.505Z,30.5
2017-07-23T10:20:30.638Z,30.5
2017-07-23T10:21:32.776Z,30.5
2017-07-23T10:22:34.229Z,30.5
2017-07-23T10:23:36.365Z,30.5
2017-07-23T10:24:38.266Z,30.5
2017-07-23T10:25:40.415Z,30.4
2017-07-23T10:26:42.217Z,30.4
2017-07-23T10:27:44.021Z,30.5
2017-07-23T10:28:45.826Z,30.4
2017-07-23T10:29:47.330Z,30.4
2017-07-23T10:30:49.131Z,30.5
2017-07-23T10:31:50.935Z,30.4
2017-07-23T10:32:52.739Z,30.5
2017-07-23T10:33:54.539Z,30.4
2017-07-23T10:34:55.991Z,30.4
2017-07-23T10:35:57.793Z,30.5
2017-07-23T10:36:59.926Z,30.4
2017-07-23T10:38:02.061Z,30.5
2017-07-23T10:39:04.196Z,30.5
2017-07-23T10:40:05.670Z,30.5
2017-07-23T10:41:07.469Z,30.5
2017-07-23T10:42:09.603Z,30.5
2017-07-23T10:43:11.069Z,30.5
2017-07-23T10:44:12.211Z,30.4
2017-07-23T10:45:14.347Z,30.4
2017-07-23T10:46:16.484Z,30.5
2017-07-23T10:47:18.618Z,30.4
2017-07-23T10:48:20.755Z,30.4
2017-07-23T10:49:22.886Z,30.4
2017-07-23T10:50:24.695Z,30.5
2017-07-23T10:51:26.821Z,30.5
2017-07-23T10:52:28.954Z,30.5
2017-07-23T10:53:30.761Z,30.5
2017-07-23T10:54:32.561Z,30.5
2017-07-23T10:55:34.699Z,30.5
2017-07-23T10:56:36.836Z,30.6
2017-07-23T10:57:38.971Z,30.5
2017-07-23T10:58:41.112Z,30.5
2017-07-23T10:59:43.243Z,30.5
2017-07-23T11:00:45.043Z,30.5
2017-07-23T11:01:46.496Z,30.5
2017-07-23T11:02:48.295Z,30.4
2017-07-23T11:03:50.099Z,30.5
2017-07-23T11:04:51.905Z,30.5
2017-07-23T11:05:53.682Z,30.5
2017-07-23T11:06:55.815Z,30.5
2017-07-23T11:07:57.617Z,30.6
2017-07-23T11:08:59.412Z,30.5
2017-07-23T11:10:01.551Z,30.5
2017-07-23T11:11:03.684Z,30.5
2017-07-23T11:12:05.485Z,30.5
2017-07-23T11:13:06.957Z,30.5
2017-07-23T11:14:08.405Z,30.6
2017-07-23T11:15:10.208Z,30.5
2017-07-23T11:16:12.344Z,30.5
2017-07-23T11:17:13.814Z,30.5
2017-07-23T11:18:15.621Z,30.5
2017-07-23T11:19:17.758Z,30.5
2017-07-23T11:20:19.564Z,30.5
2017-07-23T11:21:21.369Z,30.6
2017-07-23T11:22:22.819Z,30.5
2017-07-23T11:23:24.622Z,30.5
2017-07-23T11:24:26.424Z,30.5
2017-07-23T11:25:27.542Z,30.5
2017-07-23T11:26:29.675Z,30.5
2017-07-23T11:27:31.809Z,30.5
2017-07-23T11:28:33.948Z,30.5
2017-07-23T11:29:36.084Z,30.5
2017-07-23T11:30:38.320Z,30.5
2017-07-23T11:31:39.770Z,30.5
2017-07-23T11:32:41.905Z,30.6
2017-07-23T11:33:43.705Z,30.6
2017-07-23T11:34:45.848Z,30.5
2017-07-23T11:35:47.650Z,30.6
2017-07-23T11:36:49.785Z,30.5
2017-07-23T11:37:51.917Z,30.5
2017-07-23T11:38:54.054Z,30.5
2017-07-23T11:39:56.185Z,30.5
2017-07-23T11:40:58.320Z,30.5
2017-07-23T11:41:59.769Z,30.5
2017-07-23T11:43:01.238Z,30.5
2017-07-23T11:44:03.041Z,30.5
2017-07-23T11:45:05.178Z,30.5
2017-07-23T11:46:07.372Z,30.4
2017-07-23T11:47:09.167Z,30.4
2017-07-23T11:48:10.638Z,30.6
2017-07-23T11:49:12.443Z,30.5
2017-07-23T11:50:14.575Z,30.5
2017-07-23T11:51:16.709Z,30.5
2017-07-23T11:52:18.511Z,30.5
2017-07-23T11:53:19.651Z,30.4
2017-07-23T11:54:20.439Z,30.4
2017-07-23T11:55:22.570Z,30.4
2017-07-23T11:56:24.704Z,30.4
2017-07-23T11:57:26.510Z,30.5
2017-07-23T11:58:28.311Z,30.4
2017-07-23T11:59:30.115Z,30.4
2017-07-23T12:00:31.921Z,30.5
2017-07-23T12:01:34.055Z,30.5
2017-07-23T12:02:35.538Z,30.5
2017-07-23T12:03:37.351Z,30.5
2017-07-23T12:04:39.149Z,30.4
2017-07-23T12:05:40.606Z,30.5
2017-07-23T12:06:42.405Z,30.5
2017-07-23T12:07:44.202Z,30.5
2017-07-23T12:08:45.984Z,30.5
2017-07-23T12:09:48.117Z,30.5
2017-07-23T12:10:50.249Z,30.5
2017-07-23T12:11:52.385Z,30.5
2017-07-23T12:12:54.521Z,30.5
2017-07-23T12:13:55.971Z,30.5
2017-07-23T12:14:57.778Z,30.6
2017-07-23T12:15:59.911Z,30.5
2017-07-23T12:17:01.383Z,30.6
2017-07-23T12:18:03.186Z,30.5
2017-07-23T12:19:05.319Z,30.6
2017-07-23T12:20:07.455Z,30.5
2017-07-23T12:21:09.594Z,30.6
2017-07-23T12:22:11.414Z,30.5
2017-07-23T12:23:13.550Z,30.5
2017-07-23T12:24:15.347Z,30.5
2017-07-23T12:25:17.484Z,30.5
2017-07-23T12:26:19.621Z,30.5
2017-07-23T12:27:21.089Z,30.5
2017-07-23T12:28:22.899Z,30.5
2017-07-23T12:29:24.679Z,30.5
2017-07-23T12:30:26.486Z,30.5
2017-07-23T12:31:28.621Z,30.5
2017-07-23T12:32:30.085Z,30.5
2017-07-23T12:33:32.225Z,30.6
2017-07-23T12:34:33.672Z,30.6
2017-07-23T12:35:34.785Z,30.5
2017-07-23T12:36:36.921Z,30.6
2017-07-23T12:37:38.034Z,30.6
2017-07-23T12:38:40.167Z,30.4
2017-07-23T12:39:41.638Z,30.5
2017-07-23T12:40:43.780Z,30.5
2017-07-23T12:41:44.908Z,30.5
2017-07-23T12:42:46.711Z,30.5
2017-07-23T12:43:48.183Z,30.6
2017-07-23T12:44:49.981Z,30.6
2017-07-23T12:45:52.122Z,30.5
2017-07-23T12:46:53.928Z,30.5
2017-07-23T12:47:56.063Z,30.6
2017-07-23T12:48:57.536Z,30.7
2017-07-23T12:49:59.338Z,30.6
2017-07-23T12:51:01.140Z,30.6
2017-07-23T12:52:02.940Z,30.6
2017-07-23T12:53:04.410Z,30.7
2017-07-23T12:54:06.216Z,30.6
2017-07-23T12:55:08.347Z,30.6
2017-07-23T12:56:10.480Z,30.6
2017-07-23T12:57:11.951Z,30.6
2017-07-23T12:58:13.727Z,30.7
2017-07-23T12:59:15.532Z,30.5
2017-07-23T13:00:17.668Z,30.6
2017-07-23T13:01:19.137Z,30.5
2017-07-23T13:02:20.247Z,30.5
2017-07-23T13:03:22.052Z,30.5
2017-07-23T13:04:24.183Z,30.6
2017-07-23T13:05:25.635Z,30.6
2017-07-23T13:06:27.770Z,30.6
2017-07-23T13:07:29.902Z,30.5
2017-07-23T13:08:32.038Z,30.7
2017-07-23T13:09:33.509Z,30.6
2017-07-23T13:10:35.645Z,30.6
2017-07-23T13:11:37.781Z,30.6
2017-07-23T13:12:39.918Z,30.7
2017-07-23T13:13:41.740Z,30.7
2017-07-23T13:14:43.876Z,30.6
2017-07-23T13:15:45.683Z,30.6
2017-07-23T13:16:47.485Z,30.6
2017-07-23T13:17:49.619Z,30.7
2017-07-23T13:18:51.397Z,30.7
2017-07-23T13:19:53.531Z,30.7
2017-07-23T13:20:55.663Z,30.7
2017-07-23T13:21:57.142Z,30.7
2017-07-23T13:22:58.947Z,30.7
2017-07-23T13:24:00.741Z,30.7
2017-07-23T13:25:02.543Z,30.7
2017-07-23T13:26:03.995Z,30.7
2017-07-23T13:27:05.800Z,30.6
2017-07-23T13:28:07.929Z,30.7
2017-07-23T13:29:09.705Z,30.7
2017-07-23T13:30:11.154Z,30.7
2017-07-23T13:31:12.623Z,30.6
2017-07-23T13:32:14.763Z,30.6
2017-07-23T13:33:16.663Z,30.7
2017-07-23T13:34:18.468Z,30.7
2017-07-23T13:35:19.915Z,30.7
2017-07-23T13:36:22.050Z,30.8
2017-07-23T13:37:24.184Z,30.7
2017-07-23T13:38:25.967Z,30.7
2017-07-23T13:39:28.102Z,30.7
2017-07-23T13:40:30.245Z,30.7
2017-07-23T13:41:32.042Z,30.7
2017-07-23T13:42:34.175Z,30.7
2017-07-23T13:43:36.310Z,30.7
2017-07-23T13:44:38.441Z,30.7
2017-07-23T13:45:40.572Z,30.7
2017-07-23T13:46:42.709Z,30.7
2017-07-23T13:47:44.846Z,30.7
2017-07-23T13:48:46.645Z,30.7
2017-07-23T13:49:48.445Z,30.6
2017-07-23T13:50:50.250Z,30.7